sensor_id;sensor_type;location;lat;lon;timestamp;P1;durP1;ratioP1;P2;durP2;ratioP2
9461;SDS011;4769;42.660;23.262;2023-04-24T00:00:13;10.57;;;9.48;;
9461;SDS011;4769;42.660;23.262;2023-04-24T00:02:42;11.93;;;8.82;;
9461;SDS011;4769;42.660;23.262;2023-04-24T00:05:08;13.60;;;9.68;;
9461;SDS011;4769;42.660;23.262;2023-04-24T00:07:34;11.32;;;9.10;;
9461;SDS011;4769;42.660;23.262;2023-04-24T00:10:00;10.02;;;8.25;;
9461;SDS011;4769;42.660;23.262;2023-04-24T00:12:25;14.00;;;9.23;;
9461;SDS011;4769;42.660;23.262;2023-04-24T00:14:51;10.52;;;9.50;;
9461;SDS011;4769;42.660;23.262;2023-04-24T00:17:17;11.25;;;8.48;;
9461;SDS011;4769;42.660;23.262;2023-04-24T00:19:46;11.88;;;9.07;;
9461;SDS011;4769;42.660;23.262;2023-04-24T00:22:12;12.93;;;9.20;;
9461;SDS011;4769;42.660;23.262;2023-04-24T00:24:38;11.23;;;8.90;;
9461;SDS011;4769;42.660;23.262;2023-04-24T00:27:03;11.90;;;8.82;;
9461;SDS011;4769;42.660;23.262;2023-04-24T00:29:29;11.67;;;9.83;;
9461;SDS011;4769;42.660;23.262;2023-04-24T00:31:55;12.40;;;8.90;;
9461;SDS011;4769;42.660;23.262;2023-04-24T00:34:20;15.90;;;9.20;;
9461;SDS011;4769;42.660;23.262;2023-04-24T00:36:49;14.37;;;9.67;;
9461;SDS011;4769;42.660;23.262;2023-04-24T00:39:15;13.27;;;9.37;;
9461;SDS011;4769;42.660;23.262;2023-04-24T00:41:40;11.60;;;9.10;;
9461;SDS011;4769;42.660;23.262;2023-04-24T00:44:06;10.50;;;9.40;;
9461;SDS011;4769;42.660;23.262;2023-04-24T00:46:32;12.00;;;9.07;;
9461;SDS011;4769;42.660;23.262;2023-04-24T00:48:58;12.73;;;9.63;;
9461;SDS011;4769;42.660;23.262;2023-04-24T00:51:24;11.60;;;9.10;;
9461;SDS011;4769;42.660;23.262;2023-04-24T00:53:52;10.23;;;8.80;;
9461;SDS011;4769;42.660;23.262;2023-04-24T00:56:18;10.33;;;8.90;;
9461;SDS011;4769;42.660;23.262;2023-04-24T00:58:44;11.73;;;9.20;;
9461;SDS011;4769;42.660;23.262;2023-04-24T01:01:10;14.37;;;9.97;;
9461;SDS011;4769;42.660;23.262;2023-04-24T01:03:36;12.50;;;8.63;;
9461;SDS011;4769;42.660;23.262;2023-04-24T01:06:02;10.73;;;9.13;;
9461;SDS011;4769;42.660;23.262;2023-04-24T01:08:30;12.73;;;9.73;;
9461;SDS011;4769;42.660;23.262;2023-04-24T01:10:59;13.53;;;9.10;;
9461;SDS011;4769;42.660;23.262;2023-04-24T01:13:28;11.40;;;10.10;;
9461;SDS011;4769;42.660;23.262;2023-04-24T01:15:54;20.38;;;10.73;;
9461;SDS011;4769;42.660;23.262;2023-04-24T01:18:20;12.17;;;10.77;;
9461;SDS011;4769;42.660;23.262;2023-04-24T01:20:46;12.33;;;10.67;;
9461;SDS011;4769;42.660;23.262;2023-04-24T01:23:17;13.43;;;11.95;;
9461;SDS011;4769;42.660;23.262;2023-04-24T01:25:42;16.63;;;12.00;;
9461;SDS011;4769;42.660;23.262;2023-04-24T01:28:09;12.75;;;11.38;;
9461;SDS011;4769;42.660;23.262;2023-04-24T01:30:35;11.33;;;10.23;;
9461;SDS011;4769;42.660;23.262;2023-04-24T01:33:01;12.77;;;10.50;;
9461;SDS011;4769;42.660;23.262;2023-04-24T01:35:27;12.37;;;10.30;;
9461;SDS011;4769;42.660;23.262;2023-04-24T01:37:52;14.27;;;10.77;;
9461;SDS011;4769;42.660;23.262;2023-04-24T01:40:21;12.07;;;9.87;;
9461;SDS011;4769;42.660;23.262;2023-04-24T01:42:47;11.50;;;10.40;;
9461;SDS011;4769;42.660;23.262;2023-04-24T01:45:14;11.73;;;10.50;;
9461;SDS011;4769;42.660;23.262;2023-04-24T01:47:40;16.50;;;9.95;;
9461;SDS011;4769;42.660;23.262;2023-04-24T01:50:07;12.23;;;10.17;;
9461;SDS011;4769;42.660;23.262;2023-04-24T01:52:34;14.87;;;10.60;;
9461;SDS011;4769;42.660;23.262;2023-04-24T01:54:59;13.23;;;10.33;;
9461;SDS011;4769;42.660;23.262;2023-04-24T01:57:28;15.50;;;10.20;;
9461;SDS011;4769;42.660;23.262;2023-04-24T01:59:54;11.80;;;9.50;;
9461;SDS011;4769;42.660;23.262;2023-04-24T02:02:19;12.63;;;10.20;;
9461;SDS011;4769;42.660;23.262;2023-04-24T02:04:45;12.13;;;10.90;;
9461;SDS011;4769;42.660;23.262;2023-04-24T02:07:11;10.90;;;9.63;;
9461;SDS011;4769;42.660;23.262;2023-04-24T02:09:36;22.87;;;18.17;;
9461;SDS011;4769;42.660;23.262;2023-04-24T02:12:02;21.97;;;18.13;;
9461;SDS011;4769;42.660;23.262;2023-04-24T02:14:30;15.77;;;13.97;;
9461;SDS011;4769;42.660;23.262;2023-04-24T02:16:56;22.43;;;14.03;;
9461;SDS011;4769;42.660;23.262;2023-04-24T02:19:22;16.33;;;13.43;;
9461;SDS011;4769;42.660;23.262;2023-04-24T02:21:48;18.60;;;13.37;;
9461;SDS011;4769;42.660;23.262;2023-04-24T02:24:13;13.63;;;12.30;;
9461;SDS011;4769;42.660;23.262;2023-04-24T02:26:39;16.43;;;11.87;;
9461;SDS011;4769;42.660;23.262;2023-04-24T02:29:05;14.67;;;10.97;;
9461;SDS011;4769;42.660;23.262;2023-04-24T02:31:33;12.57;;;10.77;;
9461;SDS011;4769;42.660;23.262;2023-04-24T02:33:59;13.70;;;11.30;;
9461;SDS011;4769;42.660;23.262;2023-04-24T02:36:24;13.10;;;11.47;;
9461;SDS011;4769;42.660;23.262;2023-04-24T02:38:50;17.57;;;11.50;;
9461;SDS011;4769;42.660;23.262;2023-04-24T02:41:16;11.43;;;10.23;;
9461;SDS011;4769;42.660;23.262;2023-04-24T02:43:42;12.70;;;10.73;;
9461;SDS011;4769;42.660;23.262;2023-04-24T02:46:07;16.50;;;11.73;;
9461;SDS011;4769;42.660;23.262;2023-04-24T02:48:35;13.27;;;10.53;;
9461;SDS011;4769;42.660;23.262;2023-04-24T02:51:01;15.23;;;10.90;;
9461;SDS011;4769;42.660;23.262;2023-04-24T02:53:27;17.37;;;11.70;;
9461;SDS011;4769;42.660;23.262;2023-04-24T02:55:53;12.30;;;11.03;;
9461;SDS011;4769;42.660;23.262;2023-04-24T02:58:18;12.27;;;10.97;;
9461;SDS011;4769;42.660;23.262;2023-04-24T03:00:44;13.13;;;11.73;;
9461;SDS011;4769;42.660;23.262;2023-04-24T03:03:10;12.90;;;11.50;;
9461;SDS011;4769;42.660;23.262;2023-04-24T03:05:38;12.10;;;10.30;;
9461;SDS011;4769;42.660;23.262;2023-04-24T03:08:04;12.53;;;10.20;;
9461;SDS011;4769;42.660;23.262;2023-04-24T03:10:30;14.17;;;10.13;;
9461;SDS011;4769;42.660;23.262;2023-04-24T03:12:56;16.00;;;10.60;;
9461;SDS011;4769;42.660;23.262;2023-04-24T03:15:21;11.77;;;10.47;;
9461;SDS011;4769;42.660;23.262;2023-04-24T03:17:47;10.83;;;9.70;;
9461;SDS011;4769;42.660;23.262;2023-04-24T03:20:13;14.70;;;9.90;;
9461;SDS011;4769;42.660;23.262;2023-04-24T03:22:43;11.17;;;9.10;;
9461;SDS011;4769;42.660;23.262;2023-04-24T03:25:09;13.00;;;9.90;;
9461;SDS011;4769;42.660;23.262;2023-04-24T03:27:35;12.13;;;9.13;;
9461;SDS011;4769;42.660;23.262;2023-04-24T03:30:00;10.27;;;9.27;;
9461;SDS011;4769;42.660;23.262;2023-04-24T03:32:26;11.87;;;9.30;;
9461;SDS011;4769;42.660;23.262;2023-04-24T03:34:52;9.80;;;8.60;;
9461;SDS011;4769;42.660;23.262;2023-04-24T03:37:17;10.93;;;9.13;;
9461;SDS011;4769;42.660;23.262;2023-04-24T03:39:46;11.43;;;8.77;;
9461;SDS011;4769;42.660;23.262;2023-04-24T03:42:11;10.60;;;8.90;;
9461;SDS011;4769;42.660;23.262;2023-04-24T03:44:37;9.63;;;8.63;;
9461;SDS011;4769;42.660;23.262;2023-04-24T03:47:03;10.20;;;9.17;;
9461;SDS011;4769;42.660;23.262;2023-04-24T03:49:28;9.53;;;8.63;;
9461;SDS011;4769;42.660;23.262;2023-04-24T03:51:54;9.30;;;8.10;;
9461;SDS011;4769;42.660;23.262;2023-04-24T03:54:20;10.07;;;8.90;;
9461;SDS011;4769;42.660;23.262;2023-04-24T03:56:48;9.60;;;8.27;;
9461;SDS011;4769;42.660;23.262;2023-04-24T03:59:14;14.10;;;9.17;;
9461;SDS011;4769;42.660;23.262;2023-04-24T04:01:39;10.13;;;9.00;;
9461;SDS011;4769;42.660;23.262;2023-04-24T04:04:05;10.93;;;9.60;;
9461;SDS011;4769;42.660;23.262;2023-04-24T04:06:31;13.73;;;9.67;;
9461;SDS011;4769;42.660;23.262;2023-04-24T04:08:57;10.70;;;9.23;;
9461;SDS011;4769;42.660;23.262;2023-04-24T04:11:23;11.23;;;9.10;;
9461;SDS011;4769;42.660;23.262;2023-04-24T04:13:52;12.53;;;8.87;;
9461;SDS011;4769;42.660;23.262;2023-04-24T04:16:17;14.33;;;9.50;;
9461;SDS011;4769;42.660;23.262;2023-04-24T04:18:43;12.43;;;9.33;;
9461;SDS011;4769;42.660;23.262;2023-04-24T04:21:09;9.57;;;8.30;;
9461;SDS011;4769;42.660;23.262;2023-04-24T04:23:34;14.17;;;9.30;;
9461;SDS011;4769;42.660;23.262;2023-04-24T04:26:02;12.40;;;8.83;;
9461;SDS011;4769;42.660;23.262;2023-04-24T04:28:28;9.23;;;8.30;;
9461;SDS011;4769;42.660;23.262;2023-04-24T04:30:57;11.63;;;8.43;;
9461;SDS011;4769;42.660;23.262;2023-04-24T04:33:23;9.67;;;8.67;;
9461;SDS011;4769;42.660;23.262;2023-04-24T04:35:49;13.33;;;8.53;;
9461;SDS011;4769;42.660;23.262;2023-04-24T04:38:15;11.67;;;8.70;;
9461;SDS011;4769;42.660;23.262;2023-04-24T04:40:41;13.33;;;10.03;;
9461;SDS011;4769;42.660;23.262;2023-04-24T04:43:06;13.63;;;9.77;;
9461;SDS011;4769;42.660;23.262;2023-04-24T04:45:32;14.70;;;11.03;;
9461;SDS011;4769;42.660;23.262;2023-04-24T04:48:00;11.47;;;10.27;;
9461;SDS011;4769;42.660;23.262;2023-04-24T04:50:26;14.13;;;10.13;;
9461;SDS011;4769;42.660;23.262;2023-04-24T04:52:52;14.50;;;10.17;;
9461;SDS011;4769;42.660;23.262;2023-04-24T04:55:17;15.37;;;9.93;;
9461;SDS011;4769;42.660;23.262;2023-04-24T04:57:43;16.50;;;10.93;;
9461;SDS011;4769;42.660;23.262;2023-04-24T05:00:09;21.33;;;18.77;;
9461;SDS011;4769;42.660;23.262;2023-04-24T05:02:36;15.33;;;10.77;;
9461;SDS011;4769;42.660;23.262;2023-04-24T05:05:05;11.27;;;9.37;;
9461;SDS011;4769;42.660;23.262;2023-04-24T05:07:31;14.27;;;9.07;;
9461;SDS011;4769;42.660;23.262;2023-04-24T05:09:57;12.80;;;9.93;;
9461;SDS011;4769;42.660;23.262;2023-04-24T05:12:22;15.93;;;9.83;;
9461;SDS011;4769;42.660;23.262;2023-04-24T05:14:48;14.07;;;10.23;;
9461;SDS011;4769;42.660;23.262;2023-04-24T05:17:14;16.73;;;10.93;;
9461;SDS011;4769;42.660;23.262;2023-04-24T05:19:39;21.03;;;11.33;;
9461;SDS011;4769;42.660;23.262;2023-04-24T05:22:08;17.70;;;10.87;;
9461;SDS011;4769;42.660;23.262;2023-04-24T05:24:33;18.13;;;10.30;;
9461;SDS011;4769;42.660;23.262;2023-04-24T05:26:59;20.57;;;10.43;;
9461;SDS011;4769;42.660;23.262;2023-04-24T05:29:25;15.40;;;10.13;;
9461;SDS011;4769;42.660;23.262;2023-04-24T05:31:50;17.05;;;10.80;;
9461;SDS011;4769;42.660;23.262;2023-04-24T05:34:16;18.63;;;9.80;;
9461;SDS011;4769;42.660;23.262;2023-04-24T05:36:42;25.10;;;10.53;;
9461;SDS011;4769;42.660;23.262;2023-04-24T05:39:10;17.23;;;10.77;;
9461;SDS011;4769;42.660;23.262;2023-04-24T05:41:36;18.08;;;10.15;;
9461;SDS011;4769;42.660;23.262;2023-04-24T05:44:01;20.07;;;10.03;;
9461;SDS011;4769;42.660;23.262;2023-04-24T05:46:27;16.33;;;9.95;;
9461;SDS011;4769;42.660;23.262;2023-04-24T05:48:53;14.23;;;10.50;;
9461;SDS011;4769;42.660;23.262;2023-04-24T05:51:18;15.48;;;9.90;;
9461;SDS011;4769;42.660;23.262;2023-04-24T05:53:44;19.48;;;10.50;;
9461;SDS011;4769;42.660;23.262;2023-04-24T05:56:12;14.25;;;8.90;;
9461;SDS011;4769;42.660;23.262;2023-04-24T05:58:38;25.10;;;10.75;;
9461;SDS011;4769;42.660;23.262;2023-04-24T06:01:04;17.33;;;8.40;;
9461;SDS011;4769;42.660;23.262;2023-04-24T06:03:30;15.60;;;7.57;;
9461;SDS011;4769;42.660;23.262;2023-04-24T06:05:55;11.45;;;7.63;;
9461;SDS011;4769;42.660;23.262;2023-04-24T06:08:21;9.93;;;7.63;;
9461;SDS011;4769;42.660;23.262;2023-04-24T06:10:47;11.90;;;7.20;;
9461;SDS011;4769;42.660;23.262;2023-04-24T06:13:15;8.93;;;7.13;;
9461;SDS011;4769;42.660;23.262;2023-04-24T06:15:41;13.75;;;9.10;;
9461;SDS011;4769;42.660;23.262;2023-04-24T06:18:07;12.15;;;7.57;;
9461;SDS011;4769;42.660;23.262;2023-04-24T06:20:32;19.67;;;7.70;;
9461;SDS011;4769;42.660;23.262;2023-04-24T06:22:58;8.90;;;7.75;;
9461;SDS011;4769;42.660;23.262;2023-04-24T06:25:24;21.33;;;9.20;;
9461;SDS011;4769;42.660;23.262;2023-04-24T06:27:51;16.08;;;8.75;;
9461;SDS011;4769;42.660;23.262;2023-04-24T06:30:20;14.02;;;7.78;;
9461;SDS011;4769;42.660;23.262;2023-04-24T06:32:45;15.50;;;8.15;;
9461;SDS011;4769;42.660;23.262;2023-04-24T06:35:11;10.95;;;8.38;;
9461;SDS011;4769;42.660;23.262;2023-04-24T06:37:37;13.05;;;8.45;;
9461;SDS011;4769;42.660;23.262;2023-04-24T06:40:02;11.45;;;9.20;;
9461;SDS011;4769;42.660;23.262;2023-04-24T06:42:29;16.65;;;9.15;;
9461;SDS011;4769;42.660;23.262;2023-04-24T06:44:54;13.77;;;8.95;;
9461;SDS011;4769;42.660;23.262;2023-04-24T06:47:23;16.80;;;9.52;;
9461;SDS011;4769;42.660;23.262;2023-04-24T06:49:48;14.02;;;9.70;;
9461;SDS011;4769;42.660;23.262;2023-04-24T06:52:14;10.93;;;9.15;;
9461;SDS011;4769;42.660;23.262;2023-04-24T06:54:41;10.88;;;8.60;;
9461;SDS011;4769;42.660;23.262;2023-04-24T06:57:06;13.02;;;9.05;;
9461;SDS011;4769;42.660;23.262;2023-04-24T06:59:33;14.95;;;9.00;;
9461;SDS011;4769;42.660;23.262;2023-04-24T07:01:59;22.38;;;9.52;;
9461;SDS011;4769;42.660;23.262;2023-04-24T07:04:27;13.77;;;9.15;;
9461;SDS011;4769;42.660;23.262;2023-04-24T07:06:53;15.13;;;9.88;;
9461;SDS011;4769;42.660;23.262;2023-04-24T07:09:19;13.07;;;9.23;;
9461;SDS011;4769;42.660;23.262;2023-04-24T07:11:44;12.02;;;8.70;;
9461;SDS011;4769;42.660;23.262;2023-04-24T07:14:10;12.98;;;9.02;;
9461;SDS011;4769;42.660;23.262;2023-04-24T07:16:36;11.27;;;8.50;;
9461;SDS011;4769;42.660;23.262;2023-04-24T07:19:02;10.48;;;8.25;;
9461;SDS011;4769;42.660;23.262;2023-04-24T07:21:30;15.35;;;9.60;;
9461;SDS011;4769;42.660;23.262;2023-04-24T07:23:56;9.98;;;8.52;;
9461;SDS011;4769;42.660;23.262;2023-04-24T07:26:21;12.43;;;8.02;;
9461;SDS011;4769;42.660;23.262;2023-04-24T07:28:47;8.57;;;6.78;;
9461;SDS011;4769;42.660;23.262;2023-04-24T07:31:13;9.27;;;7.72;;
9461;SDS011;4769;42.660;23.262;2023-04-24T07:33:38;11.88;;;9.43;;
9461;SDS011;4769;42.660;23.262;2023-04-24T07:36:04;12.25;;;8.02;;
9461;SDS011;4769;42.660;23.262;2023-04-24T07:38:33;14.45;;;7.30;;
9461;SDS011;4769;42.660;23.262;2023-04-24T07:40:59;9.18;;;7.47;;
9461;SDS011;4769;42.660;23.262;2023-04-24T07:43:24;10.60;;;7.30;;
9461;SDS011;4769;42.660;23.262;2023-04-24T07:45:50;11.15;;;6.57;;
9461;SDS011;4769;42.660;23.262;2023-04-24T07:48:16;10.68;;;6.45;;
9461;SDS011;4769;42.660;23.262;2023-04-24T07:50:42;12.43;;;7.57;;
9461;SDS011;4769;42.660;23.262;2023-04-24T07:53:08;7.65;;;6.70;;
9461;SDS011;4769;42.660;23.262;2023-04-24T07:55:36;7.43;;;6.68;;
9461;SDS011;4769;42.660;23.262;2023-04-24T07:58:02;11.93;;;7.13;;
9461;SDS011;4769;42.660;23.262;2023-04-24T08:00:28;10.77;;;6.35;;
9461;SDS011;4769;42.660;23.262;2023-04-24T08:02:53;11.57;;;6.45;;
9461;SDS011;4769;42.660;23.262;2023-04-24T08:05:19;11.77;;;6.53;;
9461;SDS011;4769;42.660;23.262;2023-04-24T08:07:45;10.23;;;7.00;;
9461;SDS011;4769;42.660;23.262;2023-04-24T08:10:11;10.25;;;6.82;;
9461;SDS011;4769;42.660;23.262;2023-04-24T08:12:39;12.45;;;7.40;;
9461;SDS011;4769;42.660;23.262;2023-04-24T08:15:05;7.47;;;6.68;;
9461;SDS011;4769;42.660;23.262;2023-04-24T08:17:33;17.30;;;7.43;;
9461;SDS011;4769;42.660;23.262;2023-04-24T08:19:59;8.75;;;7.03;;
9461;SDS011;4769;42.660;23.262;2023-04-24T08:22:25;8.35;;;7.25;;
9461;SDS011;4769;42.660;23.262;2023-04-24T08:24:51;12.15;;;7.47;;
9461;SDS011;4769;42.660;23.262;2023-04-24T08:27:17;8.63;;;6.85;;
9461;SDS011;4769;42.660;23.262;2023-04-24T08:29:45;7.65;;;6.85;;
9461;SDS011;4769;42.660;23.262;2023-04-24T08:32:11;9.15;;;8.15;;
9461;SDS011;4769;42.660;23.262;2023-04-24T08:34:36;8.35;;;7.25;;
9461;SDS011;4769;42.660;23.262;2023-04-24T08:37:02;11.13;;;7.82;;
9461;SDS011;4769;42.660;23.262;2023-04-24T08:39:28;10.13;;;7.53;;
9461;SDS011;4769;42.660;23.262;2023-04-24T08:41:54;13.20;;;7.95;;
9461;SDS011;4769;42.660;23.262;2023-04-24T08:44:21;19.05;;;8.18;;
9461;SDS011;4769;42.660;23.262;2023-04-24T08:46:49;8.85;;;7.95;;
9461;SDS011;4769;42.660;23.262;2023-04-24T08:49:16;12.68;;;6.85;;
9461;SDS011;4769;42.660;23.262;2023-04-24T08:51:42;11.02;;;7.13;;
9461;SDS011;4769;42.660;23.262;2023-04-24T08:54:09;9.63;;;8.05;;
9461;SDS011;4769;42.660;23.262;2023-04-24T08:56:36;9.82;;;7.57;;
9461;SDS011;4769;42.660;23.262;2023-04-24T08:59:02;11.65;;;6.85;;
9461;SDS011;4769;42.660;23.262;2023-04-24T09:01:28;9.07;;;7.60;;
9461;SDS011;4769;42.660;23.262;2023-04-24T09:03:59;15.27;;;7.72;;
9461;SDS011;4769;42.660;23.262;2023-04-24T09:06:27;9.80;;;7.38;;
9461;SDS011;4769;42.660;23.262;2023-04-24T09:08:53;8.85;;;7.25;;
9461;SDS011;4769;42.660;23.262;2023-04-24T09:11:19;11.25;;;7.55;;
9461;SDS011;4769;42.660;23.262;2023-04-24T09:13:45;8.57;;;6.75;;
9461;SDS011;4769;42.660;23.262;2023-04-24T09:16:11;8.18;;;6.28;;
9461;SDS011;4769;42.660;23.262;2023-04-24T09:18:38;11.85;;;6.82;;
9461;SDS011;4769;42.660;23.262;2023-04-24T09:21:07;10.15;;;7.10;;
9461;SDS011;4769;42.660;23.262;2023-04-24T09:23:34;10.95;;;7.50;;
9461;SDS011;4769;42.660;23.262;2023-04-24T09:26:00;8.25;;;6.47;;
9461;SDS011;4769;42.660;23.262;2023-04-24T09:28:27;10.70;;;6.90;;
9461;SDS011;4769;42.660;23.262;2023-04-24T09:31:02;10.77;;;6.38;;
9461;SDS011;4769;42.660;23.262;2023-04-24T09:33:29;9.13;;;6.85;;
9461;SDS011;4769;42.660;23.262;2023-04-24T09:35:55;9.35;;;6.97;;
9461;SDS011;4769;42.660;23.262;2023-04-24T09:38:25;11.13;;;6.95;;
9461;SDS011;4769;42.660;23.262;2023-04-24T09:40:57;8.00;;;5.80;;
9461;SDS011;4769;42.660;23.262;2023-04-24T09:43:25;13.65;;;6.43;;
9461;SDS011;4769;42.660;23.262;2023-04-24T09:45:53;10.02;;;6.25;;
9461;SDS011;4769;42.660;23.262;2023-04-24T09:48:29;12.98;;;6.93;;
9461;SDS011;4769;42.660;23.262;2023-04-24T09:50:55;9.85;;;6.28;;
9461;SDS011;4769;42.660;23.262;2023-04-24T09:53:27;8.73;;;5.70;;
9461;SDS011;4769;42.660;23.262;2023-04-24T09:55:54;7.00;;;5.82;;
9461;SDS011;4769;42.660;23.262;2023-04-24T09:58:24;11.05;;;5.60;;
9461;SDS011;4769;42.660;23.262;2023-04-24T10:00:50;20.23;;;6.28;;
9461;SDS011;4769;42.660;23.262;2023-04-24T10:03:19;9.52;;;5.88;;
9461;SDS011;4769;42.660;23.262;2023-04-24T10:05:45;8.88;;;5.93;;
9461;SDS011;4769;42.660;23.262;2023-04-24T10:08:12;13.82;;;6.38;;
9461;SDS011;4769;42.660;23.262;2023-04-24T10:10:41;12.98;;;6.00;;
9461;SDS011;4769;42.660;23.262;2023-04-24T10:13:08;9.20;;;5.55;;
9461;SDS011;4769;42.660;23.262;2023-04-24T10:15:34;9.50;;;5.60;;
9461;SDS011;4769;42.660;23.262;2023-04-24T10:18:00;6.35;;;4.90;;
9461;SDS011;4769;42.660;23.262;2023-04-24T10:20:27;7.60;;;4.60;;
9461;SDS011;4769;42.660;23.262;2023-04-24T10:22:54;7.22;;;5.65;;
9461;SDS011;4769;42.660;23.262;2023-04-24T10:25:21;7.63;;;4.70;;
9461;SDS011;4769;42.660;23.262;2023-04-24T10:27:51;8.10;;;3.95;;
9461;SDS011;4769;42.660;23.262;2023-04-24T10:30:18;6.40;;;3.65;;
9461;SDS011;4769;42.660;23.262;2023-04-24T10:32:45;7.78;;;4.10;;
9461;SDS011;4769;42.660;23.262;2023-04-24T10:35:11;5.22;;;3.60;;
9461;SDS011;4769;42.660;23.262;2023-04-24T10:37:38;5.50;;;3.97;;
9461;SDS011;4769;42.660;23.262;2023-04-24T10:40:06;4.03;;;3.60;;
9461;SDS011;4769;42.660;23.262;2023-04-24T10:42:34;7.05;;;3.97;;
9461;SDS011;4769;42.660;23.262;2023-04-24T10:45:07;4.93;;;3.55;;
9461;SDS011;4769;42.660;23.262;2023-04-24T10:47:41;7.05;;;3.80;;
9461;SDS011;4769;42.660;23.262;2023-04-24T10:50:08;6.53;;;3.75;;
9461;SDS011;4769;42.660;23.262;2023-04-24T10:52:43;5.65;;;3.78;;
9461;SDS011;4769;42.660;23.262;2023-04-24T10:55:09;5.97;;;3.50;;
9461;SDS011;4769;42.660;23.262;2023-04-24T10:57:37;4.32;;;3.90;;
9461;SDS011;4769;42.660;23.262;2023-04-24T11:00:18;5.97;;;3.80;;
9461;SDS011;4769;42.660;23.262;2023-04-24T11:02:45;5.40;;;3.72;;
9461;SDS011;4769;42.660;23.262;2023-04-24T11:05:11;4.00;;;3.63;;
9461;SDS011;4769;42.660;23.262;2023-04-24T11:10:44;5.13;;;4.00;;
9461;SDS011;4769;42.660;23.262;2023-04-24T11:13:14;5.35;;;4.10;;
9461;SDS011;4769;42.660;23.262;2023-04-24T11:15:43;3.90;;;3.55;;
9461;SDS011;4769;42.660;23.262;2023-04-24T11:18:12;5.18;;;3.67;;
9461;SDS011;4769;42.660;23.262;2023-04-24T11:20:41;3.80;;;3.40;;
9461;SDS011;4769;42.660;23.262;2023-04-24T11:23:07;4.40;;;3.78;;
9461;SDS011;4769;42.660;23.262;2023-04-24T11:25:33;5.40;;;4.40;;
9461;SDS011;4769;42.660;23.262;2023-04-24T11:28:04;34.05;;;19.15;;
9461;SDS011;4769;42.660;23.262;2023-04-24T11:30:31;4.72;;;4.22;;
9461;SDS011;4769;42.660;23.262;2023-04-24T11:33:04;4.65;;;4.25;;
9461;SDS011;4769;42.660;23.262;2023-04-24T11:35:30;5.20;;;4.60;;
9461;SDS011;4769;42.660;23.262;2023-04-24T11:38:00;10.43;;;5.88;;
9461;SDS011;4769;42.660;23.262;2023-04-24T11:40:26;9.05;;;4.72;;
9461;SDS011;4769;42.660;23.262;2023-04-24T11:42:52;47.90;;;26.98;;
9461;SDS011;4769;42.660;23.262;2023-04-24T11:45:20;10.00;;;7.68;;
9461;SDS011;4769;42.660;23.262;2023-04-24T11:47:47;5.35;;;4.85;;
9461;SDS011;4769;42.660;23.262;2023-04-24T11:50:16;5.90;;;5.00;;
9461;SDS011;4769;42.660;23.262;2023-04-24T11:52:43;6.22;;;4.70;;
9461;SDS011;4769;42.660;23.262;2023-04-24T11:55:22;11.43;;;4.80;;
9461;SDS011;4769;42.660;23.262;2023-04-24T11:57:48;5.55;;;4.20;;
9461;SDS011;4769;42.660;23.262;2023-04-24T12:00:16;4.47;;;4.18;;
9461;SDS011;4769;42.660;23.262;2023-04-24T12:02:42;4.18;;;3.83;;
9461;SDS011;4769;42.660;23.262;2023-04-24T12:05:08;4.88;;;4.40;;
9461;SDS011;4769;42.660;23.262;2023-04-24T12:07:42;4.63;;;4.20;;
9461;SDS011;4769;42.660;23.262;2023-04-24T12:10:08;3.88;;;3.58;;
9461;SDS011;4769;42.660;23.262;2023-04-24T12:12:34;5.72;;;3.90;;
9461;SDS011;4769;42.660;23.262;2023-04-24T12:15:00;5.78;;;4.00;;
9461;SDS011;4769;42.660;23.262;2023-04-24T12:17:27;6.32;;;4.40;;
9461;SDS011;4769;42.660;23.262;2023-04-24T12:19:57;10.90;;;8.23;;
9461;SDS011;4769;42.660;23.262;2023-04-24T12:22:24;5.60;;;4.47;;
9461;SDS011;4769;42.660;23.262;2023-04-24T12:24:59;6.00;;;4.40;;
9461;SDS011;4769;42.660;23.262;2023-04-24T12:27:26;6.22;;;4.28;;
9461;SDS011;4769;42.660;23.262;2023-04-24T12:29:55;6.30;;;4.70;;
9461;SDS011;4769;42.660;23.262;2023-04-24T12:32:21;7.28;;;4.10;;
9461;SDS011;4769;42.660;23.262;2023-04-24T12:34:47;5.40;;;4.07;;
9461;SDS011;4769;42.660;23.262;2023-04-24T12:37:14;5.57;;;4.05;;
9461;SDS011;4769;42.660;23.262;2023-04-24T12:39:44;4.32;;;3.90;;
9461;SDS011;4769;42.660;23.262;2023-04-24T12:42:28;4.75;;;4.20;;
9461;SDS011;4769;42.660;23.262;2023-04-24T12:44:58;5.93;;;4.32;;
9461;SDS011;4769;42.660;23.262;2023-04-24T12:47:25;5.00;;;4.38;;
9461;SDS011;4769;42.660;23.262;2023-04-24T12:49:50;5.03;;;4.45;;
9461;SDS011;4769;42.660;23.262;2023-04-24T12:52:16;4.53;;;4.13;;
9461;SDS011;4769;42.660;23.262;2023-04-24T12:54:42;4.95;;;4.20;;
9461;SDS011;4769;42.660;23.262;2023-04-24T12:57:10;5.30;;;4.70;;
9461;SDS011;4769;42.660;23.262;2023-04-24T12:59:39;6.85;;;4.60;;
9461;SDS011;4769;42.660;23.262;2023-04-24T13:02:04;5.00;;;4.15;;
9461;SDS011;4769;42.660;23.262;2023-04-24T13:04:31;4.97;;;3.80;;
9461;SDS011;4769;42.660;23.262;2023-04-24T13:06:57;4.20;;;3.80;;
9461;SDS011;4769;42.660;23.262;2023-04-24T13:09:23;7.03;;;3.85;;
9461;SDS011;4769;42.660;23.262;2023-04-24T13:11:48;4.85;;;4.10;;
9461;SDS011;4769;42.660;23.262;2023-04-24T13:14:14;5.13;;;3.83;;
9461;SDS011;4769;42.660;23.262;2023-04-24T13:16:43;5.40;;;3.80;;
9461;SDS011;4769;42.660;23.262;2023-04-24T13:19:08;4.70;;;3.90;;
9461;SDS011;4769;42.660;23.262;2023-04-24T13:21:34;8.88;;;3.70;;
9461;SDS011;4769;42.660;23.262;2023-04-24T13:24:00;6.57;;;4.03;;
9461;SDS011;4769;42.660;23.262;2023-04-24T13:26:26;9.05;;;4.50;;
9461;SDS011;4769;42.660;23.262;2023-04-24T13:28:51;6.07;;;3.83;;
9461;SDS011;4769;42.660;23.262;2023-04-24T13:31:17;4.70;;;3.80;;
9461;SDS011;4769;42.660;23.262;2023-04-24T13:33:45;5.35;;;4.50;;
9461;SDS011;4769;42.660;23.262;2023-04-24T13:36:11;4.60;;;3.67;;
9461;SDS011;4769;42.660;23.262;2023-04-24T13:38:37;4.68;;;3.55;;
9461;SDS011;4769;42.660;23.262;2023-04-24T13:41:02;5.07;;;4.00;;
9461;SDS011;4769;42.660;23.262;2023-04-24T13:43:28;4.32;;;3.95;;
9461;SDS011;4769;42.660;23.262;2023-04-24T13:45:54;6.85;;;3.55;;
9461;SDS011;4769;42.660;23.262;2023-04-24T13:48:20;4.95;;;3.90;;
9461;SDS011;4769;42.660;23.262;2023-04-24T13:50:48;6.80;;;3.70;;
9461;SDS011;4769;42.660;23.262;2023-04-24T13:53:14;11.43;;;7.72;;
9461;SDS011;4769;42.660;23.262;2023-04-24T13:55:40;8.77;;;7.30;;
9461;SDS011;4769;42.660;23.262;2023-04-24T13:58:05;4.68;;;3.50;;
9461;SDS011;4769;42.660;23.262;2023-04-24T14:00:31;3.75;;;3.20;;
9461;SDS011;4769;42.660;23.262;2023-04-24T14:02:57;5.95;;;3.22;;
9461;SDS011;4769;42.660;23.262;2023-04-24T14:05:22;14.75;;;10.07;;
9461;SDS011;4769;42.660;23.262;2023-04-24T14:07:51;8.55;;;6.78;;
9461;SDS011;4769;42.660;23.262;2023-04-24T14:10:16;10.55;;;6.72;;
9461;SDS011;4769;42.660;23.262;2023-04-24T14:12:42;4.32;;;3.92;;
9461;SDS011;4769;42.660;23.262;2023-04-24T14:15:08;4.82;;;3.60;;
9461;SDS011;4769;42.660;23.262;2023-04-24T14:17:35;4.75;;;3.63;;
9461;SDS011;4769;42.660;23.262;2023-04-24T14:20:01;6.60;;;3.95;;
9461;SDS011;4769;42.660;23.262;2023-04-24T14:22:26;4.00;;;3.20;;
9461;SDS011;4769;42.660;23.262;2023-04-24T14:24:55;4.60;;;3.50;;
9461;SDS011;4769;42.660;23.262;2023-04-24T14:27:21;4.70;;;3.40;;
9461;SDS011;4769;42.660;23.262;2023-04-24T14:29:50;4.55;;;3.20;;
9461;SDS011;4769;42.660;23.262;2023-04-24T14:32:15;4.90;;;3.78;;
9461;SDS011;4769;42.660;23.262;2023-04-24T14:34:41;4.43;;;3.67;;
9461;SDS011;4769;42.660;23.262;2023-04-24T14:37:07;5.22;;;3.53;;
9461;SDS011;4769;42.660;23.262;2023-04-24T14:39:32;3.90;;;3.50;;
9461;SDS011;4769;42.660;23.262;2023-04-24T14:42:01;6.97;;;3.72;;
9461;SDS011;4769;42.660;23.262;2023-04-24T14:44:27;11.70;;;4.90;;
9461;SDS011;4769;42.660;23.262;2023-04-24T14:46:52;4.32;;;3.60;;
9461;SDS011;4769;42.660;23.262;2023-04-24T14:49:18;10.00;;;4.80;;